Estación de Casa Rosada

Ultimos registro cada 15 minutos 93
Estación Fecha / Hora Temperatura Humedad Lluvia Velocidad Dirección Radiación Presion
93 Casa Rosada 04-05-2026 23:15 12,9 63 0 0,9 167 0 1012,8
92 Casa Rosada 04-05-2026 23:00 13,6 62 0 0 197 0 1012,7
91 Casa Rosada 04-05-2026 22:45 14,5 61 0 0 360 0 1012,6
90 Casa Rosada 04-05-2026 22:30 14,5 61 0 0 360 0 1012,5
89 Casa Rosada 04-05-2026 22:15 16,2 55 0 0 360 0 1012,5
88 Casa Rosada 04-05-2026 22:00 17,3 54 0 0 1 0 1012,5
87 Casa Rosada 04-05-2026 21:45 17,7 52 0 0,9 12 0 1012,3
86 Casa Rosada 04-05-2026 21:30 18,8 47 0 0,4 356 0 1012,1
85 Casa Rosada 04-05-2026 21:15 19,8 44 0 1,3 21 0 1012
84 Casa Rosada 04-05-2026 21:00 20,2 42 0 1,8 354 0 1011,9
83 Casa Rosada 04-05-2026 20:45 20,9 38 0 2,2 20 0 1011,6
82 Casa Rosada 04-05-2026 20:30 21,4 37 0 4,5 34 0 1011,2
81 Casa Rosada 04-05-2026 20:15 22 34 0 2,7 21 0 1010,9
80 Casa Rosada 04-05-2026 20:00 22,3 32 0 2,2 22 0 1010,5
79 Casa Rosada 04-05-2026 19:45 22,3 29 0 2,7 62 0 1010,2
78 Casa Rosada 04-05-2026 19:30 23 27 0 1,3 31 0 1009,9
77 Casa Rosada 04-05-2026 19:15 23,8 24 0 2,2 17 0 1009,5
76 Casa Rosada 04-05-2026 19:00 22,8 24 0 0,4 281 0 1009,3
75 Casa Rosada 04-05-2026 18:45 23,3 23 0 1,3 17 0 1008,9
74 Casa Rosada 04-05-2026 18:30 23,6 21 0 2,2 12 0 1008,6
73 Casa Rosada 04-05-2026 18:15 23,7 22 0 0,4 12 0 1008,3
72 Casa Rosada 04-05-2026 18:00 24,6 21 0 0,9 321 0 1008
71 Casa Rosada 04-05-2026 17:45 24,7 22 0 1,8 358 9 1007,6
70 Casa Rosada 04-05-2026 17:30 25,5 22 0 2,2 15 14 1007,2
69 Casa Rosada 04-05-2026 17:15 26,4 21 0 1,8 350 21 1007,1
68 Casa Rosada 04-05-2026 17:00 27,8 20 0 2,2 17 28 1007,1
67 Casa Rosada 04-05-2026 16:45 28,6 20 0 1,3 343 199 1007,1
66 Casa Rosada 04-05-2026 16:30 29,3 20 0 1,3 317 294 1006,9
65 Casa Rosada 04-05-2026 16:15 29,3 20 0 1,3 317 294 1006,9
64 Casa Rosada 04-05-2026 16:00 29,8 19 0 2,2 335 339 1006,8
63 Casa Rosada 04-05-2026 15:45 30,2 18 0 1,8 342 383 1006,8
62 Casa Rosada 04-05-2026 15:30 30,7 17 0 2,7 343 424 1006,8
61 Casa Rosada 04-05-2026 15:15 31,1 16 0 1,8 341 462 1006,9
60 Casa Rosada 04-05-2026 15:00 31,1 16 0 2,2 9 499 1007,1
59 Casa Rosada 04-05-2026 14:45 31,3 15 0 1,3 24 531 1007,5
58 Casa Rosada 04-05-2026 14:30 31,5 13 0 1,3 345 564 1007,7
57 Casa Rosada 04-05-2026 14:15 31,3 13 0 1,8 287 591 1007,9
56 Casa Rosada 04-05-2026 14:00 31,3 13 0 0,9 326 613 1008,1
55 Casa Rosada 04-05-2026 13:45 30,9 10 0 1,3 346 636 1008,2
54 Casa Rosada 04-05-2026 13:30 30,4 10 0 2,2 350 650 1008,4
53 Casa Rosada 04-05-2026 13:15 30 11 0 2,2 325 661 1008,6
52 Casa Rosada 04-05-2026 13:00 29,4 12 0 3,6 329 559 1008,8
51 Casa Rosada 04-05-2026 12:45 28,8 12 0 2,7 19 592 1008,9
50 Casa Rosada 04-05-2026 12:30 28,4 12 0 4 31 707 1009,2
49 Casa Rosada 04-05-2026 12:15 27,8 13 0 2,7 14 599 1009,4
48 Casa Rosada 04-05-2026 12:00 27,4 13 0 1,8 337 668 1009,7
47 Casa Rosada 04-05-2026 11:45 26,6 13 0 1,8 22 652 1010,1
46 Casa Rosada 04-05-2026 11:30 26,1 15 0 1,8 337 636 1010,5
45 Casa Rosada 04-05-2026 11:15 25,7 15 0 1,3 315 617 1010,8
44 Casa Rosada 04-05-2026 11:00 25,5 15 0 1,8 343 596 1011,3
43 Casa Rosada 04-05-2026 10:45 24,6 12 0 1,3 25 570 1011,9
42 Casa Rosada 04-05-2026 10:30 23,8 12 0 0,4 33 541 1012,6
41 Casa Rosada 04-05-2026 10:15 21,8 13 0 0 82 506 1013,3
40 Casa Rosada 04-05-2026 10:00 19,6 17 0 0 77 469 1013,9
39 Casa Rosada 04-05-2026 09:45 18,2 21 0 0,4 44 429 1014,5
38 Casa Rosada 04-05-2026 09:30 15,6 29 0 0,9 153 390 1015,2
37 Casa Rosada 04-05-2026 09:15 12,6 41 0 0,4 181 345 1015,4
36 Casa Rosada 04-05-2026 09:00 8,8 54 0 0,4 167 301 1014,8
35 Casa Rosada 04-05-2026 08:45 6,6 58 0 0 167 21 1014,8
34 Casa Rosada 04-05-2026 08:30 6,5 59 0 0,4 167 19 1014,7
33 Casa Rosada 04-05-2026 08:15 6,2 60 0 0,9 184 18 1014,8
32 Casa Rosada 04-05-2026 08:00 6 61 0 0 167 16 1014,7
31 Casa Rosada 04-05-2026 07:45 5,4 63 0 0,9 177 12 1014,6
30 Casa Rosada 04-05-2026 07:30 4,9 66 0 0 167 7 1014,5
29 Casa Rosada 04-05-2026 07:00 4,5 68 0 0,9 177 0 1014,4
28 Casa Rosada 04-05-2026 06:45 4,3 70 0 0 160 0 1014,3
27 Casa Rosada 04-05-2026 06:30 4,1 71 0 0,4 172 0 1014,2
26 Casa Rosada 04-05-2026 06:15 4,3 71 0 0,4 163 0 1014,1
25 Casa Rosada 04-05-2026 06:00 4,4 71 0 0 167 0 1014
24 Casa Rosada 04-05-2026 05:45 4,8 70 0 0,4 167 0 1013,6
23 Casa Rosada 04-05-2026 05:30 4,9 71 0 0,4 156 0 1013,5
22 Casa Rosada 04-05-2026 05:15 5 71 0 0 163 0 1013,4
21 Casa Rosada 04-05-2026 05:00 5 71 0 0,4 167 0 1013,2
20 Casa Rosada 04-05-2026 04:45 5,3 70 0 0,9 167 0 1013
19 Casa Rosada 04-05-2026 04:30 5,6 70 0 0 152 0 1013,2
18 Casa Rosada 04-05-2026 04:15 5,6 69 0 0,9 153 0 1013,2
17 Casa Rosada 04-05-2026 04:00 6,1 69 0 0,4 162 0 1013,2
16 Casa Rosada 04-05-2026 03:45 6,4 68 0 0 56 0 1013,2
15 Casa Rosada 04-05-2026 03:30 6,6 68 0 0,9 116 0 1013,3
14 Casa Rosada 04-05-2026 03:15 6,9 67 0 0,4 167 0 1013,2
13 Casa Rosada 04-05-2026 03:00 7,3 67 0 0,9 177 0 1013,1
12 Casa Rosada 04-05-2026 02:45 7,1 69 0 0,4 161 0 1013,1
11 Casa Rosada 04-05-2026 02:30 7,1 69 0 0,4 177 0 1013,3
10 Casa Rosada 04-05-2026 02:15 8,1 68 0 0,4 201 0 1013,5
9 Casa Rosada 04-05-2026 02:00 8,1 67 0 0 11 0 1013,4
8 Casa Rosada 04-05-2026 01:45 8,5 66 0 0,4 177 0 1013,5
7 Casa Rosada 04-05-2026 01:30 9 66 0 0,4 167 0 1013,3
6 Casa Rosada 04-05-2026 01:15 9,4 64 0 0 167 0 1013,3
5 Casa Rosada 04-05-2026 01:00 10,2 63 0 0 158 0 1013,2
4 Casa Rosada 04-05-2026 00:45 10,4 63 0 1,3 167 0 1013,2
3 Casa Rosada 04-05-2026 00:30 10,8 63 0 0,9 182 0 1013,3
2 Casa Rosada 04-05-2026 00:15 10,9 63 0 0,4 162 0 1013,1
1 Casa Rosada 04-05-2026 00:00 11 63 0 0 162 0 1013,3